Time;durP1;ratioP1;P1;durP2;ratioP2;P2;SDS_P1;SDS_P2;PMS_P1;PMS_P2;Temp;Humidity;BMP_temperature;BMP_pressure;BME280_temperature;BME280_humidity;BME280_pressure;Samples;Min_cycle;Max_cycle;Signal;HPM_P1;HPM_P2
2021/11/18 00:00:42;;;;;;;23.88;14.95;;;;;;;10.41;94.21;99089.97;5083659;28;20058;-60
2021/11/18 00:03:09;;;;;;;23.42;14.00;;;;;;;10.14;94.57;99044.53;5065907;28;20062;-61
2021/11/18 00:05:34;;;;;;;20.08;13.40;;;;;;;10.16;95.00;99047.00;5040100;28;20054;-67
2021/11/18 00:08:00;;;;;;;21.40;13.55;;;;;;;10.34;95.01;99087.06;5065918;28;20013;-61
2021/11/18 00:10:30;;;;;;;22.92;14.27;;;;;;;10.33;94.73;99093.22;5066055;28;20028;-61
2021/11/18 00:12:57;;;;;;;20.40;13.35;;;;;;;10.37;94.18;99097.19;5055805;28;20052;-61
2021/11/18 00:15:26;;;;;;;21.90;13.73;;;;;;;10.30;94.66;99090.03;5063077;28;20020;-60
2021/11/18 00:17:58;;;;;;;21.05;13.88;;;;;;;10.27;95.36;99079.88;5063999;28;20047;-60
2021/11/18 00:20:26;;;;;;;22.08;12.95;;;;;;;10.26;95.48;99080.81;5060538;28;20040;-60
2021/11/18 00:22:51;;;;;;;23.00;13.43;;;;;;;10.09;95.33;99059.69;5053489;28;20051;-60
2021/11/18 00:25:17;;;;;;;20.88;13.32;;;;;;;10.24;95.36;99080.13;5066331;28;20028;-61
2021/11/18 00:27:42;;;;;;;22.83;15.15;;;;;;;10.36;93.83;99090.34;5069789;28;20032;-61
2021/11/18 00:30:10;;;;;;;21.50;14.65;;;;;;;10.33;93.67;99087.19;5064413;28;20035;-60
2021/11/18 00:32:36;;;;;;;24.05;15.18;;;;;;;10.29;93.38;99091.78;5069082;28;20033;-60
2021/11/18 00:35:04;;;;;;;22.40;14.70;;;;;;;10.28;93.96;99097.94;5067315;28;20035;-60
2021/11/18 00:37:30;;;;;;;20.15;14.20;;;;;;;9.90;95.51;99039.66;5054008;28;20037;-60
2021/11/18 00:39:55;;;;;;;19.58;13.60;;;;;;;10.12;96.11;99100.22;5062867;28;20043;-61
2021/11/18 00:42:20;;;;;;;20.63;12.70;;;;;;;10.13;95.99;99102.69;5065867;28;20471;-60
2021/11/18 00:44:46;;;;;;;21.27;14.25;;;;;;;10.10;96.23;99102.13;5067659;28;20115;-60
2021/11/18 00:47:11;;;;;;;20.48;13.75;;;;;;;10.08;96.20;99107.44;5064897;28;20569;-60
2021/11/18 00:49:37;;;;;;;20.33;13.60;;;;;;;10.16;94.60;99118.00;5065440;28;20036;-61
2021/11/18 00:52:03;;;;;;;21.38;13.45;;;;;;;10.17;94.36;99106.66;5069642;28;20036;-61
2021/11/18 00:54:28;;;;;;;18.83;13.52;;;;;;;10.09;94.22;99114.25;5093744;27;20028;-61
2021/11/18 00:56:53;;;;;;;20.40;13.85;;;;;;;9.76;94.56;99058.19;5075682;28;20031;-61
2021/11/18 00:59:19;;;;;;;22.55;13.90;;;;;;;9.71;94.93;99060.34;5070111;28;20059;-61
2021/11/18 01:01:45;;;;;;;17.75;12.52;;;;;;;9.63;95.74;99063.56;5102988;27;20114;-60
2021/11/18 01:04:13;;;;;;;19.95;13.25;;;;;;;9.66;95.16;99067.72;5060033;28;20029;-61
2021/11/18 01:06:39;;;;;;;18.92;13.13;;;;;;;9.87;94.87;99088.44;5104964;27;20791;-61
2021/11/18 01:09:05;;;;;;;21.60;13.93;;;;;;;9.86;95.14;99097.22;4995894;28;20040;-61
2021/11/18 01:11:33;;;;;;;20.20;13.88;;;;;;;9.80;95.45;99091.56;5055943;28;20034;-61
2021/11/18 01:14:01;;;;;;;19.45;12.88;;;;;;;9.85;95.73;99090.34;5067205;28;21795;-61
2021/11/18 01:16:30;;;;;;;21.90;13.23;;;;;;;9.80;95.55;99088.13;5073774;28;20023;-60
2021/11/18 01:18:56;;;;;;;19.58;12.95;;;;;;;9.79;95.42;99102.91;5074375;28;20048;-61
2021/11/18 01:21:22;;;;;;;21.60;13.35;;;;;;;9.76;95.47;99113.53;5062852;28;20052;-61
2021/11/18 01:23:48;;;;;;;19.50;13.57;;;;;;;9.74;95.54;99120.63;5070606;28;20055;-61
2021/11/18 01:26:16;;;;;;;20.73;14.07;;;;;;;9.74;95.69;99112.84;4993496;27;20044;-61
2021/11/18 01:28:42;;;;;;;20.33;12.77;;;;;;;9.75;95.34;99111.09;5069918;28;20024;-61
2021/11/18 01:31:08;;;;;;;21.02;13.73;;;;;;;9.43;95.29;99062.63;5050073;28;20028;-61
2021/11/18 01:33:34;;;;;;;20.75;14.35;;;;;;;9.48;94.97;99078.66;5063372;28;20029;-61
2021/11/18 01:36:00;;;;;;;22.60;13.95;;;;;;;9.71;95.30;99123.50;5057611;28;20079;-61
2021/11/18 01:38:26;;;;;;;18.30;12.68;;;;;;;9.81;94.95;99119.19;5070161;28;20051;-61
2021/11/18 01:40:57;;;;;;;18.95;12.68;;;;;;;9.80;94.98;99125.34;5044881;28;20028;-60
2021/11/18 01:43:28;;;;;;;20.90;13.23;;;;;;;9.84;95.43;99119.88;5067950;28;20121;-60
2021/11/18 01:45:53;;;;;;;19.52;13.10;;;;;;;9.78;94.74;99131.59;5066865;28;20370;-61
2021/11/18 01:48:20;;;;;;;21.95;14.18;;;;;;;9.78;94.89;99114.25;5067122;28;20043;-60
2021/11/18 01:50:49;;;;;;;20.13;13.40;;;;;;;9.78;94.90;99135.03;5044954;28;20036;-60
2021/11/18 01:53:18;;;;;;;20.52;13.35;;;;;;;9.60;95.00;99113.16;5063716;28;20051;-61
2021/11/18 01:55:45;;;;;;;20.13;12.73;;;;;;;9.71;95.37;99130.44;5059737;28;20125;-61
2021/11/18 01:58:12;;;;;;;18.90;12.93;;;;;;;9.75;95.05;99137.06;5010011;28;20143;-60
2021/11/18 02:00:43;;;;;;;23.52;13.23;;;;;;;9.73;94.90;99134.59;5069802;28;20024;-60
2021/11/18 02:03:08;;;;;;;21.10;13.63;;;;;;;9.71;94.96;99139.09;5059756;28;20067;-62
2021/11/18 02:05:37;;;;;;;21.92;13.13;;;;;;;9.64;95.06;99135.34;5061017;28;20118;-60
2021/11/18 02:08:06;;;;;;;19.52;13.02;;;;;;;9.39;95.18;99093.19;5065579;28;20059;-61
2021/11/18 02:10:35;;;;;;;19.58;12.60;;;;;;;9.71;95.06;99133.03;5075320;28;20020;-60
2021/11/18 02:13:02;;;;;;;18.85;12.32;;;;;;;9.68;94.78;99123.75;5006356;28;20047;-59
2021/11/18 02:15:38;;;;;;;20.15;12.45;;;;;;;9.59;94.40;99108.94;5052524;28;20040;-59
2021/11/18 02:18:21;;;;;;;19.00;12.32;;;;;;;9.63;95.01;99133.69;5098252;27;20038;-60
2021/11/18 02:20:48;;;;;;;21.15;12.60;;;;;;;9.67;94.39;99135.06;5102698;27;20020;-58
2021/11/18 02:23:17;;;;;;;19.85;12.10;;;;;;;9.60;94.55;99126.13;5061524;28;20032;-60
2021/11/18 02:25:43;;;;;;;18.55;11.77;;;;;;;9.67;94.25;99135.06;5066973;28;20025;-59
2021/11/18 02:28:08;;;;;;;19.95;13.30;;;;;;;9.62;94.24;99140.66;5069718;28;20039;-64
2021/11/18 02:30:38;;;;;;;18.30;12.10;;;;;;;9.62;94.53;99150.22;5070921;28;20032;-60
2021/11/18 02:33:05;;;;;;;21.73;12.82;;;;;;;9.36;94.47;99100.41;5095436;27;20035;-60
2021/11/18 02:35:32;;;;;;;20.73;12.75;;;;;;;9.61;94.35;99140.78;5071471;28;20028;-60
2021/11/18 02:37:58;;;;;;;20.42;12.05;;;;;;;9.66;94.21;99140.41;5058188;28;20040;-59
2021/11/18 02:40:26;;;;;;;21.98;12.63;;;;;;;9.47;94.05;99115.94;5073100;28;20043;-59
2021/11/18 02:42:53;;;;;;;20.75;12.75;;;;;;;9.53;94.42;99143.19;5073666;28;20032;-61
2021/11/18 02:45:22;;;;;;;19.58;13.10;;;;;;;9.49;94.57;99140.03;5062679;28;20028;-59
2021/11/18 02:47:47;;;;;;;18.77;11.98;;;;;;;9.51;94.63;99132.94;5063545;28;20092;-59
2021/11/18 02:50:18;;;;;;;17.67;11.63;;;;;;;9.48;95.36;99127.16;5069616;28;20025;-60
2021/11/18 02:52:44;;;;;;;19.58;12.38;;;;;;;9.48;94.89;99129.75;5069810;28;20123;-59
2021/11/18 02:55:18;;;;;;;18.70;12.35;;;;;;;9.43;95.09;99119.72;5058484;28;20119;-61
2021/11/18 02:57:44;;;;;;;19.85;12.23;;;;;;;9.12;95.63;99091.06;5061327;28;20028;-61
2021/11/18 03:00:14;;;;;;;17.73;11.73;;;;;;;9.13;95.18;99084.13;5061380;28;20035;-59
2021/11/18 03:02:39;;;;;;;;;;;;;;;9.34;95.90;99129.09;5061072;28;20033;-60
2021/11/18 03:05:06;;;;;;;20.08;11.73;;;;;;;9.35;95.51;99129.94;5104589;27;20489;-60
2021/11/18 03:07:32;;;;;;;20.00;11.65;;;;;;;9.37;95.68;99133.22;5071861;28;20023;-62
2021/11/18 03:09:58;;;;;;;18.42;11.95;;;;;;;9.17;95.63;99106.28;5065078;28;20547;-60
2021/11/18 03:12:23;;;;;;;19.80;12.90;;;;;;;9.36;95.70;99147.13;5042975;28;20032;-61
2021/11/18 03:14:49;;;;;;;19.48;12.05;;;;;;;9.02;95.70;99106.56;5062693;28;20040;-61
2021/11/18 03:17:14;;;;;;;18.65;11.70;;;;;;;8.79;95.77;99066.06;5065548;28;20278;-60
2021/11/18 03:19:40;;;;;;;19.98;11.88;;;;;;;9.15;96.14;99128.94;5062596;28;20661;-59
2021/11/18 03:22:05;;;;;;;18.98;12.07;;;;;;;9.36;95.47;99154.91;5047070;28;20043;-59
2021/11/18 03:24:31;;;;;;;17.58;11.57;;;;;;;9.24;95.72;99149.78;5071600;28;20035;-61
2021/11/18 03:26:56;;;;;;;21.52;13.23;;;;;;;9.04;95.42;99111.63;5063543;28;20036;-61
2021/11/18 03:29:22;;;;;;;19.63;12.13;;;;;;;9.02;95.40;99109.16;5069563;28;20036;-60
2021/11/18 03:31:48;;;;;;;17.48;11.80;;;;;;;9.32;95.49;99164.72;5053416;28;20559;-63
2021/11/18 03:34:19;;;;;;;20.80;12.23;;;;;;;9.34;95.35;99167.19;5061906;28;20040;-60
2021/11/18 03:36:45;;;;;;;18.83;11.68;;;;;;;9.31;94.48;99168.28;5066370;28;20028;-60
2021/11/18 03:39:11;;;;;;;17.15;10.88;;;;;;;9.29;94.99;99157.19;5066876;28;20032;-60
2021/11/18 03:41:40;;;;;;;17.70;11.10;;;;;;;9.25;95.22;99166.16;5061007;28;20032;-58
2021/11/18 03:44:07;;;;;;;17.52;10.65;;;;;;;8.91;95.48;99121.31;5067578;28;20126;-60
2021/11/18 03:46:37;;;;;;;17.98;11.07;;;;;;;9.20;96.06;99179.50;5067244;28;20224;-61
2021/11/18 03:49:03;;;;;;;15.15;10.50;;;;;;;9.21;95.79;99183.75;5064483;28;20105;-58
2021/11/18 03:51:29;;;;;;;17.73;10.95;;;;;;;9.21;95.76;99186.34;5054245;28;20036;-59
2021/11/18 03:53:55;;;;;;;16.90;10.90;;;;;;;9.18;95.68;99172.78;5059483;28;20663;-59
2021/11/18 03:56:34;;;;;;;18.52;11.27;;;;;;;9.10;95.91;99165.59;5064539;28;20056;-59
2021/11/18 03:59:00;;;;;;;17.63;11.15;;;;;;;8.87;96.38;99138.06;5069100;28;20047;-59
2021/11/18 04:01:25;;;;;;;18.58;11.65;;;;;;;9.10;96.04;99172.56;5065307;28;20024;-59
2021/11/18 04:03:54;;;;;;;19.25;10.98;;;;;;;9.14;96.60;99179.97;5073010;28;20673;-57
2021/11/18 04:06:21;;;;;;;17.73;11.43;;;;;;;9.09;96.03;99169.16;5067309;28;20036;-59
2021/11/18 04:08:46;;;;;;;17.05;11.23;;;;;;;8.86;95.93;99139.84;5064387;28;20039;-59
2021/11/18 04:11:12;;;;;;;17.55;11.05;;;;;;;9.07;95.69;99170.22;5074224;28;20028;-59
2021/11/18 04:13:37;;;;;;;14.65;9.63;;;;;;;9.14;95.40;99176.56;5068655;28;20032;-58
2021/11/18 04:16:03;;;;;;;18.15;11.13;;;;;;;9.00;95.13;99169.91;5060774;28;20115;-60
2021/11/18 04:18:28;;;;;;;17.70;11.50;;;;;;;8.91;95.57;99155.03;5069406;28;20033;-58
2021/11/18 04:20:54;;;;;;;17.55;10.75;;;;;;;9.00;95.68;99175.91;5070946;28;20031;-59
2021/11/18 04:23:22;;;;;;;17.08;10.60;;;;;;;8.89;95.32;99167.28;5051817;28;20698;-58
2021/11/18 04:25:49;;;;;;;17.15;10.90;;;;;;;8.98;95.63;99182.97;5065975;28;20046;-61
2021/11/18 04:28:15;;;;;;;18.33;11.60;;;;;;;8.96;95.71;99179.69;5059360;28;20112;-60
2021/11/18 04:30:45;;;;;;;17.83;11.23;;;;;;;8.89;96.14;99182.84;5064205;28;20119;-59
2021/11/18 04:33:11;;;;;;;17.02;11.13;;;;;;;8.87;96.00;99180.41;5065605;28;20020;-58
2021/11/18 04:35:36;;;;;;;16.83;10.77;;;;;;;8.92;95.78;99183.44;5072399;28;20038;-62
2021/11/18 04:38:02;;;;;;;17.23;11.20;;;;;;;8.65;96.04;99150.97;5065803;28;20034;-62
2021/11/18 04:40:31;;;;;;;18.35;10.82;;;;;;;8.87;96.07;99183.00;5072403;28;20499;-59
2021/11/18 04:42:56;;;;;;;16.42;9.45;;;;;;;8.93;96.49;99189.47;5101335;27;20081;-60
2021/11/18 04:45:22;;;;;;;17.02;11.27;;;;;;;8.84;96.64;99197.00;5070547;28;20032;-60
2021/11/18 04:47:48;;;;;;;18.15;11.48;;;;;;;8.86;96.35;99191.72;5068089;28;20037;-61
2021/11/18 04:50:14;;;;;;;18.50;11.70;;;;;;;8.67;96.22;99153.44;5067921;28;20499;-58
2021/11/18 04:52:40;;;;;;;18.65;11.07;;;;;;;8.87;96.55;99179.56;5065617;28;20032;-58
2021/11/18 04:55:07;;;;;;;18.35;10.68;;;;;;;8.85;96.99;99177.09;5058244;28;20344;-59
2021/11/18 04:57:34;;;;;;;18.45;11.95;;;;;;;8.72;97.33;99172.03;5069680;28;20624;-59
2021/11/18 05:00:00;;;;;;;19.30;11.80;;;;;;;8.82;97.39;99182.53;5064417;28;20088;-58
2021/11/18 05:02:25;;;;;;;18.52;11.38;;;;;;;8.84;96.99;99188.41;5064359;28;20100;-58
2021/11/18 05:04:52;;;;;;;16.27;10.52;;;;;;;8.76;96.95;99177.81;5066112;28;20033;-61
2021/11/18 05:07:19;;;;;;;20.23;11.48;;;;;;;8.88;97.25;99196.78;5067280;28;20039;-58
2021/11/18 05:09:45;;;;;;;16.80;10.93;;;;;;;8.81;96.88;99194.66;5065435;28;20562;-59
2021/11/18 05:12:11;;;;;;;17.30;11.13;;;;;;;8.84;97.44;99206.56;5103722;27;20066;-58
2021/11/18 05:14:37;;;;;;;16.35;10.75;;;;;;;8.81;97.42;99202.44;5073448;28;20063;-60
2021/11/18 05:17:02;;;;;;;16.67;10.98;;;;;;;8.81;97.53;99217.97;5074220;28;20420;-58
2021/11/18 05:19:27;;;;;;;18.77;11.25;;;;;;;8.79;97.86;99209.50;5075586;28;20086;-60
2021/11/18 05:21:53;;;;;;;18.42;10.75;;;;;;;8.77;97.51;99205.41;5072576;28;20035;-60
2021/11/18 05:24:19;;;;;;;18.55;10.70;;;;;;;8.75;97.93;99197.72;5069134;28;20046;-58
2021/11/18 05:26:45;;;;;;;17.13;10.82;;;;;;;8.81;97.77;99214.56;5101310;27;20103;-60
2021/11/18 05:29:11;;;;;;;15.05;9.32;;;;;;;8.81;97.18;99223.16;5072963;28;20039;-57
2021/11/18 05:31:37;;;;;;;16.80;10.10;;;;;;;8.82;97.13;99219.66;5077295;28;20048;-62
2021/11/18 05:34:02;;;;;;;18.10;10.45;;;;;;;8.72;97.60;99220.47;5048369;28;20089;-60
2021/11/18 05:36:28;;;;;;;17.75;10.32;;;;;;;8.72;97.14;99218.69;5071905;28;20035;-58
2021/11/18 05:38:53;;;;;;;15.73;8.95;;;;;;;8.71;97.04;99222.25;5067977;28;20082;-62
2021/11/18 05:41:21;;;;;;;16.73;10.23;;;;;;;8.40;97.70;99169.31;5075840;28;20039;-60
2021/11/18 05:43:47;;;;;;;14.30;9.63;;;;;;;8.70;98.15;99230.13;5056182;28;20032;-60
2021/11/18 05:46:15;;;;;;;18.33;9.60;;;;;;;8.71;97.94;99231.81;5072597;28;20672;-60
2021/11/18 05:48:40;;;;;;;15.07;10.05;;;;;;;8.29;98.18;99172.72;5064209;28;20036;-60
2021/11/18 05:51:08;;;;;;;15.63;9.88;;;;;;;8.62;98.33;99223.78;5068992;28;20434;-60
2021/11/18 05:53:37;;;;;;;16.05;9.63;;;;;;;8.63;98.30;99230.63;5071763;28;20025;-60
2021/11/18 05:56:06;;;;;;;16.73;10.67;;;;;;;8.34;98.45;99188.75;5073508;28;20466;-59
2021/11/18 05:58:31;;;;;;;15.53;9.90;;;;;;;8.61;98.20;99236.84;5067918;28;20323;-60
2021/11/18 06:00:57;;;;;;;15.63;9.57;;;;;;;8.55;98.42;99232.97;5068047;28;20016;-60
2021/11/18 06:03:22;;;;;;;17.65;10.38;;;;;;;8.17;98.80;99184.00;5063421;28;20456;-58
2021/11/18 06:05:47;;;;;;;15.43;9.95;;;;;;;8.47;98.86;99224.94;5062201;28;20503;-59
2021/11/18 06:08:13;;;;;;;18.30;10.20;;;;;;;8.53;98.09;99234.84;5069196;28;20111;-60
2021/11/18 06:10:38;;;;;;;18.15;9.63;;;;;;;8.50;98.45;99237.66;5070024;28;20078;-60
2021/11/18 06:13:05;;;;;;;16.35;10.07;;;;;;;8.53;98.37;99237.44;5106527;27;20043;-61
2021/11/18 06:15:31;;;;;;;15.48;9.38;;;;;;;8.16;98.33;99187.50;5055583;28;20546;-60
2021/11/18 06:17:56;;;;;;;15.93;10.07;;;;;;;8.45;98.53;99229.41;5066010;28;20505;-60
2021/11/18 06:20:22;;;;;;;15.60;9.05;;;;;;;8.53;98.70;99252.16;5071003;28;20255;-59
2021/11/18 06:22:49;;;;;;;16.33;9.82;;;;;;;8.58;98.74;99263.00;5066896;28;20044;-61
2021/11/18 06:25:17;;;;;;;15.65;9.68;;;;;;;8.55;99.13;99258.88;5061680;28;20028;-63
2021/11/18 06:27:45;;;;;;;15.18;10.15;;;;;;;8.60;97.98;99285.28;5061273;28;20446;-59
2021/11/18 06:30:31;;;;;;;15.73;10.20;;;;;;;8.59;97.83;99283.63;5067043;28;20036;-59
2021/11/18 06:32:57;;;;;;;14.38;9.32;;;;;;;8.55;97.99;99287.38;5068145;28;20025;-60
2021/11/18 06:35:23;;;;;;;14.65;9.35;;;;;;;8.61;97.89;99291.28;5072126;28;20881;-58
2021/11/18 06:37:49;;;;;;;15.13;10.05;;;;;;;8.65;97.46;99290.94;5098381;27;20819;-60
2021/11/18 06:40:17;;;;;;;15.25;9.20;;;;;;;8.64;97.54;99297.06;5063908;28;20052;-63
2021/11/18 06:42:43;;;;;;;14.13;9.02;;;;;;;8.64;97.92;99312.63;5061542;28;20024;-60
2021/11/18 06:45:11;;;;;;;13.93;9.00;;;;;;;8.54;98.44;99308.22;5086618;28;20115;-60
2021/11/18 06:47:37;;;;;;;15.73;9.40;;;;;;;8.53;98.07;99296.22;5087248;28;20071;-60
2021/11/18 06:50:03;;;;;;;14.90;9.52;;;;;;;8.54;97.99;99313.41;5068905;28;20854;-60
2021/11/18 06:52:28;;;;;;;13.65;8.45;;;;;;;8.28;98.23;99285.88;5070535;28;20097;-60
2021/11/18 06:54:54;;;;;;;14.82;9.25;;;;;;;8.47;98.26;99320.84;5068507;28;20028;-59
2021/11/18 06:57:20;;;;;;;14.35;9.50;;;;;;;8.52;97.81;99315.31;5071209;28;20387;-60
2021/11/18 06:59:46;;;;;;;13.38;8.27;;;;;;;8.32;97.97;99290.84;5062001;28;20037;-60
2021/11/18 07:02:12;;;;;;;16.23;9.57;;;;;;;8.51;98.15;99335.22;5062791;28;20055;-60
2021/11/18 07:04:38;;;;;;;14.45;9.00;;;;;;;8.47;98.25;99336.41;5105943;27;20028;-60
2021/11/18 07:07:03;;;;;;;15.15;9.77;;;;;;;8.43;98.25;99335.78;5064782;28;20078;-60
2021/11/18 07:09:29;;;;;;;15.60;9.48;;;;;;;8.45;98.76;99335.66;5063140;28;20035;-61
2021/11/18 07:11:55;;;;;;;15.48;9.75;;;;;;;8.11;98.57;99281.13;5071569;28;20240;-60
2021/11/18 07:14:21;;;;;;;16.55;9.50;;;;;;;8.48;98.47;99338.03;5066514;28;20028;-60
2021/11/18 07:16:46;;;;;;;16.75;8.38;;;;;;;8.49;98.10;99338.84;5100317;27;20799;-60
2021/11/18 07:19:12;;;;;;;14.07;8.75;;;;;;;8.41;98.21;99326.44;5064926;28;20594;-60
2021/11/18 07:21:38;;;;;;;14.40;8.70;;;;;;;8.41;97.93;99331.63;5061049;28;20041;-60
2021/11/18 07:24:06;;;;;;;13.32;8.85;;;;;;;8.44;97.83;99340.03;5061990;28;20024;-60
2021/11/18 07:26:35;;;;;;;14.80;9.30;;;;;;;8.39;97.87;99344.69;5064385;28;20028;-60
2021/11/18 07:29:01;;;;;;;13.95;8.43;;;;;;;8.15;98.07;99305.84;5064393;28;20020;-60
2021/11/18 07:31:26;;;;;;;15.30;9.50;;;;;;;8.28;98.24;99329.91;5059664;28;20041;-60
2021/11/18 07:33:52;;;;;;;14.63;9.20;;;;;;;8.38;98.32;99334.44;5069550;28;20020;-60
2021/11/18 07:36:17;;;;;;;16.63;9.57;;;;;;;8.41;98.11;99347.97;5067386;28;20096;-60
2021/11/18 07:38:43;;;;;;;15.85;9.65;;;;;;;8.43;98.08;99358.28;5072670;28;20020;-60
2021/11/18 07:41:09;;;;;;;14.32;8.70;;;;;;;8.35;98.37;99365.75;5063201;28;20071;-61
2021/11/18 07:43:38;;;;;;;17.05;9.45;;;;;;;8.42;97.91;99365.22;5061402;28;20024;-61
2021/11/18 07:46:05;;;;;;;17.08;12.00;;;;;;;8.34;98.22;99375.31;5056924;28;20032;-60
2021/11/18 07:48:31;;;;;;;16.13;12.57;;;;;;;8.17;98.24;99345.44;5063481;28;20094;-60
2021/11/18 07:50:58;;;;;;;16.23;10.57;;;;;;;8.33;97.98;99368.47;5063265;28;20107;-60
2021/11/18 07:53:25;;;;;;;18.25;10.45;;;;;;;8.38;97.78;99375.91;5063543;28;20036;-60
2021/11/18 07:55:51;;;;;;;15.35;9.23;;;;;;;8.42;97.83;99373.00;5086102;28;20509;-60
2021/11/18 07:58:17;;;;;;;17.95;10.65;;;;;;;8.20;97.95;99342.63;5076394;28;20025;-60
2021/11/18 08:00:44;;;;;;;16.42;10.55;;;;;;;8.36;98.12;99377.78;5058284;28;20050;-60
2021/11/18 08:03:11;;;;;;;17.25;10.88;;;;;;;8.31;98.42;99382.47;5090327;27;20042;-61
2021/11/18 08:05:37;;;;;;;14.70;9.40;;;;;;;8.33;98.21;99384.00;5057475;28;20025;-60
2021/11/18 08:08:03;;;;;;;14.38;9.48;;;;;;;8.36;98.04;99385.53;5056984;28;21228;-60
2021/11/18 08:10:28;;;;;;;13.95;8.90;;;;;;;8.34;97.78;99390.88;5062607;28;20039;-60
2021/11/18 08:12:54;;;;;;;14.23;8.95;;;;;;;8.30;98.43;99392.00;5071784;28;20024;-60
2021/11/18 08:15:20;;;;;;;15.63;9.90;;;;;;;8.35;98.64;99386.50;5061980;28;20376;-60
2021/11/18 08:17:46;;;;;;;15.02;9.57;;;;;;;8.30;98.93;99383.41;5068381;28;20118;-60
2021/11/18 08:20:13;;;;;;;13.65;9.05;;;;;;;8.36;98.17;99406.28;5094592;27;20103;-60
2021/11/18 08:22:39;;;;;;;16.02;9.75;;;;;;;8.11;98.64;99382.16;5067119;28;20032;-60
2021/11/18 08:25:06;;;;;;;13.50;8.80;;;;;;;8.31;98.60;99411.81;5064212;28;20074;-59
2021/11/18 08:27:32;;;;;;;14.45;9.73;;;;;;;8.41;98.34;99407.59;5059448;28;20024;-60
2021/11/18 08:29:58;;;;;;;16.13;10.38;;;;;;;8.21;98.53;99364.16;5055856;28;20031;-60
2021/11/18 08:32:24;;;;;;;14.02;9.48;;;;;;;8.44;98.57;99406.59;5061224;28;20471;-59
2021/11/18 08:34:50;;;;;;;15.30;9.68;;;;;;;8.35;98.87;99404.63;5072260;28;20030;-60
2021/11/18 08:37:16;;;;;;;14.85;10.43;;;;;;;8.43;99.43;99410.09;5074852;28;20036;-59
2021/11/18 08:39:42;;;;;;;16.30;9.20;;;;;;;8.42;98.66;99409.28;5067155;28;20095;-59
2021/11/18 08:42:11;;;;;;;16.35;9.80;;;;;;;8.14;98.52;99378.50;5066409;28;20107;-60
2021/11/18 08:44:38;;;;;;;15.17;9.97;;;;;;;8.42;98.15;99414.47;5064991;28;20017;-60
2021/11/18 08:47:05;;;;;;;15.40;9.32;;;;;;;8.43;98.09;99403.19;5063738;28;20085;-59
2021/11/18 08:49:31;;;;;;;13.63;9.38;;;;;;;8.08;97.78;99354.69;5075903;28;20047;-59
2021/11/18 08:52:06;;;;;;;14.05;9.50;;;;;;;8.31;97.82;99395.44;5068996;28;20045;-59
2021/11/18 08:54:32;;;;;;;14.63;9.55;;;;;;;8.42;97.68;99414.47;5066549;28;20021;-60
2021/11/18 08:56:58;;;;;;;14.48;9.32;;;;;;;8.48;97.71;99422.75;5076278;28;20028;-60
2021/11/18 08:59:24;;;;;;;13.70;9.52;;;;;;;8.38;97.22;99412.19;5068312;28;20028;-60
2021/11/18 09:01:54;;;;;;;13.55;9.02;;;;;;;8.40;97.58;99415.50;5067201;28;20069;-60
2021/11/18 09:04:22;;;;;;;14.45;9.05;;;;;;;8.41;97.45;99417.94;5069061;28;20071;-60
2021/11/18 09:06:49;;;;;;;17.38;9.00;;;;;;;8.15;97.03;99370.63;5064644;28;20335;-59
2021/11/18 09:09:17;;;;;;;12.00;8.68;;;;;;;8.51;96.95;99418.16;5070378;28;20048;-59
2021/11/18 09:11:44;;;;;;;14.25;8.98;;;;;;;8.54;96.63;99424.88;5077246;28;20059;-59
2021/11/18 09:14:10;;;;;;;12.77;8.18;;;;;;;8.64;96.71;99424.09;5065779;28;20123;-60
2021/11/18 09:16:37;;;;;;;13.77;8.55;;;;;;;8.62;96.71;99417.38;5073545;28;20024;-59
2021/11/18 09:19:05;;;;;;;12.27;7.82;;;;;;;8.59;95.49;99410.63;5067553;28;20029;-61
2021/11/18 09:21:31;;;;;;;12.20;7.85;;;;;;;8.71;95.14;99429.66;5073048;28;20046;-61
2021/11/18 09:24:07;;;;;;;11.35;7.68;;;;;;;8.71;95.25;99439.22;5070661;28;20047;-59
2021/11/18 09:26:36;;;;;;;10.93;7.60;;;;;;;8.46;95.24;99402.94;5071674;28;20024;-61
2021/11/18 09:29:02;;;;;;;12.10;8.35;;;;;;;8.73;95.65;99440.75;5069343;28;20043;-60
2021/11/18 09:31:28;;;;;;;11.95;7.38;;;;;;;8.79;95.35;99447.25;5072464;28;20136;-60
2021/11/18 09:33:55;;;;;;;11.35;7.72;;;;;;;8.80;94.88;99443.72;5075471;28;20032;-61
2021/11/18 09:36:22;;;;;;;12.93;7.75;;;;;;;8.79;94.86;99434.28;5070030;28;20020;-60
2021/11/18 09:38:49;;;;;;;12.05;7.60;;;;;;;8.83;94.95;99443.50;5095411;27;20134;-59
2021/11/18 09:41:27;;;;;;;14.10;8.18;;;;;;;8.79;95.06;99442.06;5069602;28;20106;-61
2021/11/18 09:44:14;;;;;;;12.20;8.02;;;;;;;8.80;95.18;99436.78;5068135;28;20070;-61
2021/11/18 09:46:55;;;;;;;15.00;8.60;;;;;;;8.52;95.76;99399.06;5063887;28;20081;-60
2021/11/18 09:49:51;;;;;;;12.00;7.55;;;;;;;8.94;94.71;99448.69;5063450;28;20038;-60
2021/11/18 09:52:35;;;;;;;13.00;7.85;;;;;;;9.10;95.19;99451.00;5068865;28;20467;-60
2021/11/18 09:55:01;;;;;;;12.00;7.75;;;;;;;9.03;95.30;99427.28;5072551;28;20158;-60
2021/11/18 09:58:04;;;;;;;12.98;8.13;;;;;;;9.30;94.86;99453.88;5053612;28;20530;-60
2021/11/18 10:00:38;;;;;;;11.52;7.70;;;;;;;9.35;93.97;99454.34;5061241;28;20036;-61
2021/11/18 10:03:33;;;;;;;12.68;7.53;;;;;;;9.43;93.44;99454.56;5074648;28;20032;-61
2021/11/18 10:06:04;;;;;;;14.02;7.82;;;;;;;9.48;93.26;99454.25;5068534;28;20016;-61
2021/11/18 10:08:50;;;;;;;11.57;7.30;;;;;;;9.47;92.79;99453.38;5064622;28;20028;-60
2021/11/18 10:11:29;;;;;;;12.23;7.25;;;;;;;9.19;92.63;99410.56;5065039;28;20055;-60
2021/11/18 10:14:08;;;;;;;12.30;7.75;;;;;;;9.44;92.37;99451.06;5069153;28;20039;-60
2021/11/18 10:16:55;;;;;;;10.77;6.82;;;;;;;9.52;92.41;99451.28;5069417;28;20039;-60
2021/11/18 10:19:36;;;;;;;10.00;6.45;;;;;;;9.45;91.10;99431.09;5062849;28;20478;-59
2021/11/18 10:22:02;;;;;;;9.63;5.57;;;;;;;9.61;90.34;99449.75;5064906;28;20036;-60
2021/11/18 10:24:34;;;;;;;8.60;5.78;;;;;;;9.52;89.02;99421.91;5064349;28;20500;-60
2021/11/18 10:27:10;;;;;;;8.70;5.50;;;;;;;9.52;89.23;99394.16;5069830;28;20071;-60
2021/11/18 10:29:38;;;;;;;8.02;4.80;;;;;;;9.84;87.28;99434.16;5052990;28;20131;-60
2021/11/18 10:32:06;;;;;;;9.35;5.63;;;;;;;9.84;89.00;99419.41;5064347;28;20116;-60
2021/11/18 10:34:51;;;;;;;8.05;5.03;;;;;;;9.95;86.50;99442.78;5077413;28;20028;-60
2021/11/18 10:37:26;;;;;;;8.57;5.22;;;;;;;9.86;87.28;99406.31;5062140;28;20484;-60
2021/11/18 10:39:52;;;;;;;9.57;5.82;;;;;;;10.09;87.41;99439.06;5066495;28;20028;-60
2021/11/18 10:42:32;;;;;;;9.27;5.50;;;;;;;10.07;86.77;99435.78;5060008;28;20082;-60
2021/11/18 10:45:03;;;;;;;8.13;5.13;;;;;;;10.08;85.06;99437.44;5071667;28;20047;-60
2021/11/18 10:48:18;;;;;;;8.88;4.80;;;;;;;10.09;86.15;99426.06;5072539;28;20032;-60
2021/11/18 10:50:45;;;;;;;7.68;4.90;;;;;;;10.22;85.23;99427.72;5091206;28;20032;-60
2021/11/18 10:53:21;;;;;;;7.97;4.82;;;;;;;10.27;86.76;99429.00;5057562;28;20028;-61
2021/11/18 10:56:05;;;;;;;9.35;5.13;;;;;;;10.31;86.94;99408.81;5074407;28;20481;-60
2021/11/18 10:58:35;;;;;;;11.45;5.30;;;;;;;10.32;86.59;99415.66;5069981;28;20032;-59
2021/11/18 11:01:27;;;;;;;;;;;;;;;10.31;84.90;99414.00;5067615;28;20097;-61
2021/11/18 11:03:57;;;;;;;7.18;4.43;;;;;;;10.31;84.88;99416.59;5049256;28;20383;-60
2021/11/18 11:06:31;;;;;;;8.07;4.63;;;;;;;10.42;84.48;99413.13;5051475;28;20028;-60
2021/11/18 11:09:08;;;;;;;11.48;4.15;;;;;;;10.42;84.33;99408.75;5077407;28;20031;-60
2021/11/18 11:11:59;;;;;;;8.80;4.70;;;;;;;10.45;84.29;99400.72;5066296;28;20427;-60
2021/11/18 11:14:43;;;;;;;7.70;4.10;;;;;;;10.48;84.62;99400.47;5069201;28;20735;-60
2021/11/18 11:17:16;;;;;;;8.15;4.50;;;;;;;10.60;83.97;99397.81;5060543;28;20031;-60
2021/11/18 11:19:47;;;;;;;7.72;4.63;;;;;;;10.80;82.64;99406.59;5072058;28;20032;-60
2021/11/18 11:22:22;;;;;;;6.65;4.20;;;;;;;10.88;81.79;99393.75;5065154;28;20546;-60
2021/11/18 11:25:17;;;;;;;7.30;3.83;;;;;;;11.07;82.40;99388.69;5056820;28;20097;-60
2021/11/18 11:27:57;;;;;;;7.43;4.10;;;;;;;11.05;81.78;99390.59;5060452;27;20075;-60
2021/11/18 11:30:46;;;;;;;10.05;4.28;;;;;;;11.09;82.46;99397.19;5069061;28;20031;-60
2021/11/18 11:33:33;;;;;;;9.07;4.53;;;;;;;10.80;82.08;99341.56;5070655;28;20031;-60
2021/11/18 11:36:08;;;;;;;7.35;4.45;;;;;;;11.08;82.79;99385.13;5066428;28;20020;-59